sensor_id;sensor_type;location;lat;lon;timestamp;P1;durP1;ratioP1;P2;durP2;ratioP2
41903;SDS011;27586;51.124;4.182;2023-06-14T00:01:44;10.02;;;5.57;;
41903;SDS011;27586;51.124;4.182;2023-06-14T00:04:14;6.18;;;4.40;;
41903;SDS011;27586;51.124;4.182;2023-06-14T00:06:41;5.40;;;4.60;;
41903;SDS011;27586;51.124;4.182;2023-06-14T00:09:10;5.50;;;4.85;;
41903;SDS011;27586;51.124;4.182;2023-06-14T00:11:37;5.72;;;5.00;;
41903;SDS011;27586;51.124;4.182;2023-06-14T00:14:03;7.75;;;5.10;;
41903;SDS011;27586;51.124;4.182;2023-06-14T00:16:29;9.02;;;5.10;;
41903;SDS011;27586;51.124;4.182;2023-06-14T00:18:55;8.13;;;4.70;;
41903;SDS011;27586;51.124;4.182;2023-06-14T00:21:21;6.90;;;4.93;;
41903;SDS011;27586;51.124;4.182;2023-06-14T00:23:46;7.22;;;4.72;;
41903;SDS011;27586;51.124;4.182;2023-06-14T00:26:12;7.22;;;5.00;;
41903;SDS011;27586;51.124;4.182;2023-06-14T00:28:38;5.55;;;4.35;;
41903;SDS011;27586;51.124;4.182;2023-06-14T00:31:04;7.38;;;4.80;;
41903;SDS011;27586;51.124;4.182;2023-06-14T00:33:29;6.63;;;4.28;;
41903;SDS011;27586;51.124;4.182;2023-06-14T00:35:55;6.93;;;4.70;;
41903;SDS011;27586;51.124;4.182;2023-06-14T00:38:20;5.75;;;5.00;;
41903;SDS011;27586;51.124;4.182;2023-06-14T00:40:46;8.95;;;5.60;;
41903;SDS011;27586;51.124;4.182;2023-06-14T00:43:12;7.93;;;5.68;;
41903;SDS011;27586;51.124;4.182;2023-06-14T00:45:38;7.38;;;5.75;;
41903;SDS011;27586;51.124;4.182;2023-06-14T00:48:04;7.07;;;5.30;;
41903;SDS011;27586;51.124;4.182;2023-06-14T00:50:31;6.90;;;5.32;;
41903;SDS011;27586;51.124;4.182;2023-06-14T00:52:58;7.82;;;5.60;;
41903;SDS011;27586;51.124;4.182;2023-06-14T00:55:25;7.63;;;5.30;;
41903;SDS011;27586;51.124;4.182;2023-06-14T00:57:51;7.78;;;6.05;;
41903;SDS011;27586;51.124;4.182;2023-06-14T01:00:18;6.57;;;5.70;;
41903;SDS011;27586;51.124;4.182;2023-06-14T01:02:44;8.75;;;6.00;;
41903;SDS011;27586;51.124;4.182;2023-06-14T01:05:09;9.13;;;5.70;;
41903;SDS011;27586;51.124;4.182;2023-06-14T01:13:05;7.35;;;5.93;;
41903;SDS011;27586;51.124;4.182;2023-06-14T01:15:35;9.23;;;6.45;;
41903;SDS011;27586;51.124;4.182;2023-06-14T01:18:03;7.80;;;6.00;;
41903;SDS011;27586;51.124;4.182;2023-06-14T01:20:30;9.02;;;6.30;;
41903;SDS011;27586;51.124;4.182;2023-06-14T01:22:57;7.38;;;5.55;;
41903;SDS011;27586;51.124;4.182;2023-06-14T01:25:24;7.82;;;6.22;;
41903;SDS011;27586;51.124;4.182;2023-06-14T01:27:58;8.18;;;5.78;;
41903;SDS011;27586;51.124;4.182;2023-06-14T01:30:27;8.73;;;6.53;;
41903;SDS011;27586;51.124;4.182;2023-06-14T01:32:55;8.50;;;6.47;;
41903;SDS011;27586;51.124;4.182;2023-06-14T01:35:22;6.88;;;6.22;;
41903;SDS011;27586;51.124;4.182;2023-06-14T01:37:48;7.38;;;5.97;;
41903;SDS011;27586;51.124;4.182;2023-06-14T01:40:15;11.27;;;6.32;;
41903;SDS011;27586;51.124;4.182;2023-06-14T01:42:42;9.00;;;6.80;;
41903;SDS011;27586;51.124;4.182;2023-06-14T01:45:10;10.18;;;6.20;;
41903;SDS011;27586;51.124;4.182;2023-06-14T01:47:36;7.32;;;5.55;;
41903;SDS011;27586;51.124;4.182;2023-06-14T01:50:03;7.22;;;6.28;;
41903;SDS011;27586;51.124;4.182;2023-06-14T01:52:29;9.35;;;6.15;;
41903;SDS011;27586;51.124;4.182;2023-06-14T01:54:55;8.80;;;6.20;;
41903;SDS011;27586;51.124;4.182;2023-06-14T01:57:21;8.15;;;6.05;;
41903;SDS011;27586;51.124;4.182;2023-06-14T01:59:47;7.05;;;5.97;;
41903;SDS011;27586;51.124;4.182;2023-06-14T02:02:14;7.20;;;5.88;;
41903;SDS011;27586;51.124;4.182;2023-06-14T02:04:40;7.05;;;5.70;;
41903;SDS011;27586;51.124;4.182;2023-06-14T02:07:06;6.93;;;5.97;;
41903;SDS011;27586;51.124;4.182;2023-06-14T02:09:33;9.52;;;6.03;;
41903;SDS011;27586;51.124;4.182;2023-06-14T02:11:59;8.20;;;5.50;;
41903;SDS011;27586;51.124;4.182;2023-06-14T02:14:25;8.30;;;5.95;;
41903;SDS011;27586;51.124;4.182;2023-06-14T02:16:51;6.15;;;5.38;;
41903;SDS011;27586;51.124;4.182;2023-06-14T02:19:18;7.97;;;5.28;;
41903;SDS011;27586;51.124;4.182;2023-06-14T02:21:44;8.55;;;6.05;;
41903;SDS011;27586;51.124;4.182;2023-06-14T02:24:10;8.70;;;5.50;;
41903;SDS011;27586;51.124;4.182;2023-06-14T02:26:36;8.15;;;5.47;;
41903;SDS011;27586;51.124;4.182;2023-06-14T02:29:07;6.43;;;5.60;;
41903;SDS011;27586;51.124;4.182;2023-06-14T02:31:38;6.32;;;5.03;;
41903;SDS011;27586;51.124;4.182;2023-06-14T02:34:03;8.10;;;5.43;;
41903;SDS011;27586;51.124;4.182;2023-06-14T02:36:29;6.65;;;5.35;;
41903;SDS011;27586;51.124;4.182;2023-06-14T02:38:55;5.95;;;5.32;;
41903;SDS011;27586;51.124;4.182;2023-06-14T02:41:24;6.95;;;5.15;;
41903;SDS011;27586;51.124;4.182;2023-06-14T02:43:51;7.30;;;5.35;;
41903;SDS011;27586;51.124;4.182;2023-06-14T02:46:17;5.47;;;4.93;;
41903;SDS011;27586;51.124;4.182;2023-06-14T02:48:43;5.43;;;4.82;;
41903;SDS011;27586;51.124;4.182;2023-06-14T02:51:11;6.43;;;4.32;;
41903;SDS011;27586;51.124;4.182;2023-06-14T02:53:37;5.38;;;4.40;;
41903;SDS011;27586;51.124;4.182;2023-06-14T02:56:03;6.30;;;4.82;;
41903;SDS011;27586;51.124;4.182;2023-06-14T02:58:29;6.97;;;4.63;;
41903;SDS011;27586;51.124;4.182;2023-06-14T03:00:55;6.30;;;4.85;;
41903;SDS011;27586;51.124;4.182;2023-06-14T03:03:21;8.30;;;5.03;;
41903;SDS011;27586;51.124;4.182;2023-06-14T03:05:50;7.25;;;4.53;;
41903;SDS011;27586;51.124;4.182;2023-06-14T03:08:16;6.82;;;4.78;;
41903;SDS011;27586;51.124;4.182;2023-06-14T03:10:45;7.22;;;4.65;;
41903;SDS011;27586;51.124;4.182;2023-06-14T03:13:11;6.10;;;4.25;;
41903;SDS011;27586;51.124;4.182;2023-06-14T03:15:38;5.20;;;4.60;;
41903;SDS011;27586;51.124;4.182;2023-06-14T03:18:09;6.10;;;4.40;;
41903;SDS011;27586;51.124;4.182;2023-06-14T03:20:37;5.90;;;4.88;;
41903;SDS011;27586;51.124;4.182;2023-06-14T03:23:03;5.35;;;4.38;;
41903;SDS011;27586;51.124;4.182;2023-06-14T03:25:30;5.50;;;4.47;;
41903;SDS011;27586;51.124;4.182;2023-06-14T03:27:56;5.75;;;4.65;;
41903;SDS011;27586;51.124;4.182;2023-06-14T03:30:22;6.82;;;4.53;;
41903;SDS011;27586;51.124;4.182;2023-06-14T03:32:47;5.47;;;4.32;;
41903;SDS011;27586;51.124;4.182;2023-06-14T03:35:13;7.15;;;4.63;;
41903;SDS011;27586;51.124;4.182;2023-06-14T03:37:46;9.43;;;5.10;;
41903;SDS011;27586;51.124;4.182;2023-06-14T03:40:12;8.32;;;4.85;;
41903;SDS011;27586;51.124;4.182;2023-06-14T03:42:40;6.28;;;4.55;;
41903;SDS011;27586;51.124;4.182;2023-06-14T03:45:07;10.80;;;4.78;;
41903;SDS011;27586;51.124;4.182;2023-06-14T03:47:33;5.13;;;4.47;;
41903;SDS011;27586;51.124;4.182;2023-06-14T03:49:59;7.13;;;4.68;;
41903;SDS011;27586;51.124;4.182;2023-06-14T03:52:26;6.07;;;4.68;;
41903;SDS011;27586;51.124;4.182;2023-06-14T03:54:52;6.25;;;4.60;;
41903;SDS011;27586;51.124;4.182;2023-06-14T03:57:18;6.90;;;4.55;;
41903;SDS011;27586;51.124;4.182;2023-06-14T03:59:43;15.20;;;7.60;;
41903;SDS011;27586;51.124;4.182;2023-06-14T04:02:09;9.55;;;5.40;;
41903;SDS011;27586;51.124;4.182;2023-06-14T04:04:35;6.20;;;4.65;;
41903;SDS011;27586;51.124;4.182;2023-06-14T04:07:01;5.05;;;4.43;;
41903;SDS011;27586;51.124;4.182;2023-06-14T04:09:28;12.27;;;5.82;;
41903;SDS011;27586;51.124;4.182;2023-06-14T04:11:55;7.70;;;4.45;;
41903;SDS011;27586;51.124;4.182;2023-06-14T04:14:21;6.05;;;5.25;;
41903;SDS011;27586;51.124;4.182;2023-06-14T04:16:47;5.88;;;5.00;;
41903;SDS011;27586;51.124;4.182;2023-06-14T04:19:14;5.50;;;4.68;;
41903;SDS011;27586;51.124;4.182;2023-06-14T04:21:40;5.63;;;4.35;;
41903;SDS011;27586;51.124;4.182;2023-06-14T04:24:06;7.25;;;4.80;;
41903;SDS011;27586;51.124;4.182;2023-06-14T04:26:31;7.18;;;4.85;;
41903;SDS011;27586;51.124;4.182;2023-06-14T04:29:01;7.18;;;4.53;;
41903;SDS011;27586;51.124;4.182;2023-06-14T04:31:30;7.07;;;4.72;;
41903;SDS011;27586;51.124;4.182;2023-06-14T04:33:58;7.75;;;4.57;;
41903;SDS011;27586;51.124;4.182;2023-06-14T04:36:24;8.95;;;4.72;;
41903;SDS011;27586;51.124;4.182;2023-06-14T04:38:52;6.20;;;5.10;;
41903;SDS011;27586;51.124;4.182;2023-06-14T04:41:20;8.80;;;4.90;;
41903;SDS011;27586;51.124;4.182;2023-06-14T04:43:48;6.13;;;4.05;;
41903;SDS011;27586;51.124;4.182;2023-06-14T04:46:14;8.57;;;4.80;;
41903;SDS011;27586;51.124;4.182;2023-06-14T04:48:40;6.78;;;4.13;;
41903;SDS011;27586;51.124;4.182;2023-06-14T04:51:10;7.03;;;5.25;;
41903;SDS011;27586;51.124;4.182;2023-06-14T04:53:36;11.30;;;5.10;;
41903;SDS011;27586;51.124;4.182;2023-06-14T04:56:02;11.45;;;4.97;;
41903;SDS011;27586;51.124;4.182;2023-06-14T04:58:28;5.40;;;4.80;;
41903;SDS011;27586;51.124;4.182;2023-06-14T05:00:54;7.47;;;4.97;;
41903;SDS011;27586;51.124;4.182;2023-06-14T05:03:24;9.00;;;5.20;;
41903;SDS011;27586;51.124;4.182;2023-06-14T05:05:50;6.00;;;4.38;;
41903;SDS011;27586;51.124;4.182;2023-06-14T05:08:18;8.10;;;4.65;;
41903;SDS011;27586;51.124;4.182;2023-06-14T05:10:45;11.07;;;5.50;;
41903;SDS011;27586;51.124;4.182;2023-06-14T05:13:10;10.30;;;5.45;;
41903;SDS011;27586;51.124;4.182;2023-06-14T05:15:36;10.05;;;5.47;;
41903;SDS011;27586;51.124;4.182;2023-06-14T05:18:02;7.78;;;5.07;;
41903;SDS011;27586;51.124;4.182;2023-06-14T05:20:28;15.27;;;6.05;;
41903;SDS011;27586;51.124;4.182;2023-06-14T05:22:54;13.43;;;5.82;;
41903;SDS011;27586;51.124;4.182;2023-06-14T05:25:21;15.35;;;6.30;;
41903;SDS011;27586;51.124;4.182;2023-06-14T05:27:47;13.70;;;5.80;;
41903;SDS011;27586;51.124;4.182;2023-06-14T05:30:14;10.93;;;5.45;;
41903;SDS011;27586;51.124;4.182;2023-06-14T05:32:40;9.35;;;5.55;;
41903;SDS011;27586;51.124;4.182;2023-06-14T05:35:06;9.52;;;5.25;;
41903;SDS011;27586;51.124;4.182;2023-06-14T05:37:32;9.73;;;5.75;;
41903;SDS011;27586;51.124;4.182;2023-06-14T05:39:58;11.18;;;5.55;;
41903;SDS011;27586;51.124;4.182;2023-06-14T05:42:24;13.65;;;5.85;;
41903;SDS011;27586;51.124;4.182;2023-06-14T05:44:49;18.20;;;6.50;;
41903;SDS011;27586;51.124;4.182;2023-06-14T05:47:15;7.32;;;5.78;;
41903;SDS011;27586;51.124;4.182;2023-06-14T05:49:58;9.18;;;5.68;;
41903;SDS011;27586;51.124;4.182;2023-06-14T05:52:24;8.40;;;5.70;;
41903;SDS011;27586;51.124;4.182;2023-06-14T05:54:50;8.63;;;5.45;;
41903;SDS011;27586;51.124;4.182;2023-06-14T05:57:15;8.43;;;5.38;;
41903;SDS011;27586;51.124;4.182;2023-06-14T05:59:41;8.68;;;5.57;;
41903;SDS011;27586;51.124;4.182;2023-06-14T06:02:10;6.95;;;5.70;;
41903;SDS011;27586;51.124;4.182;2023-06-14T06:04:35;12.07;;;5.72;;
41903;SDS011;27586;51.124;4.182;2023-06-14T06:07:01;11.27;;;5.68;;
41903;SDS011;27586;51.124;4.182;2023-06-14T06:09:27;10.93;;;5.88;;
41903;SDS011;27586;51.124;4.182;2023-06-14T06:11:52;9.55;;;5.32;;
41903;SDS011;27586;51.124;4.182;2023-06-14T06:14:18;8.35;;;4.72;;
41903;SDS011;27586;51.124;4.182;2023-06-14T06:16:43;6.00;;;5.40;;
41903;SDS011;27586;51.124;4.182;2023-06-14T06:19:09;8.85;;;5.20;;
41903;SDS011;27586;51.124;4.182;2023-06-14T06:21:35;8.30;;;5.20;;
41903;SDS011;27586;51.124;4.182;2023-06-14T06:24:04;9.05;;;5.35;;
41903;SDS011;27586;51.124;4.182;2023-06-14T06:26:31;12.38;;;5.50;;
41903;SDS011;27586;51.124;4.182;2023-06-14T06:28:57;8.07;;;5.25;;
41903;SDS011;27586;51.124;4.182;2023-06-14T06:31:23;7.50;;;4.72;;
41903;SDS011;27586;51.124;4.182;2023-06-14T06:33:49;6.72;;;4.65;;
41903;SDS011;27586;51.124;4.182;2023-06-14T06:36:15;7.20;;;4.88;;
41903;SDS011;27586;51.124;4.182;2023-06-14T06:38:41;7.13;;;5.20;;
41903;SDS011;27586;51.124;4.182;2023-06-14T06:41:07;9.77;;;5.10;;
41903;SDS011;27586;51.124;4.182;2023-06-14T06:43:32;7.35;;;5.40;;
41903;SDS011;27586;51.124;4.182;2023-06-14T06:45:58;10.57;;;5.15;;
41903;SDS011;27586;51.124;4.182;2023-06-14T06:48:24;8.52;;;5.15;;
41903;SDS011;27586;51.124;4.182;2023-06-14T06:50:49;8.80;;;5.05;;
41903;SDS011;27586;51.124;4.182;2023-06-14T06:53:16;8.43;;;5.07;;
41903;SDS011;27586;51.124;4.182;2023-06-14T06:55:43;7.07;;;5.13;;
41903;SDS011;27586;51.124;4.182;2023-06-14T06:58:09;7.78;;;5.22;;
41903;SDS011;27586;51.124;4.182;2023-06-14T07:00:35;7.32;;;5.00;;
41903;SDS011;27586;51.124;4.182;2023-06-14T07:03:00;7.60;;;5.40;;
41903;SDS011;27586;51.124;4.182;2023-06-14T07:05:26;7.15;;;4.88;;
41903;SDS011;27586;51.124;4.182;2023-06-14T07:07:52;6.35;;;4.70;;
41903;SDS011;27586;51.124;4.182;2023-06-14T07:10:18;12.32;;;4.68;;
41903;SDS011;27586;51.124;4.182;2023-06-14T07:12:43;9.57;;;5.32;;
41903;SDS011;27586;51.124;4.182;2023-06-14T07:15:09;8.07;;;5.35;;
41903;SDS011;27586;51.124;4.182;2023-06-14T07:17:36;12.02;;;5.72;;
41903;SDS011;27586;51.124;4.182;2023-06-14T07:20:02;7.15;;;5.32;;
41903;SDS011;27586;51.124;4.182;2023-06-14T07:22:38;8.75;;;5.03;;
41903;SDS011;27586;51.124;4.182;2023-06-14T07:25:10;11.60;;;5.15;;
41903;SDS011;27586;51.124;4.182;2023-06-14T07:27:40;8.20;;;5.22;;
41903;SDS011;27586;51.124;4.182;2023-06-14T07:30:06;8.50;;;5.53;;
41903;SDS011;27586;51.124;4.182;2023-06-14T07:32:33;9.65;;;5.47;;
41903;SDS011;27586;51.124;4.182;2023-06-14T07:34:58;9.70;;;5.32;;
41903;SDS011;27586;51.124;4.182;2023-06-14T07:37:24;8.32;;;4.47;;
41903;SDS011;27586;51.124;4.182;2023-06-14T07:39:50;8.25;;;4.93;;
41903;SDS011;27586;51.124;4.182;2023-06-14T07:42:16;10.23;;;5.15;;
41903;SDS011;27586;51.124;4.182;2023-06-14T07:44:41;6.10;;;4.90;;
41903;SDS011;27586;51.124;4.182;2023-06-14T07:47:07;9.65;;;5.07;;
41903;SDS011;27586;51.124;4.182;2023-06-14T07:49:32;9.52;;;5.32;;
41903;SDS011;27586;51.124;4.182;2023-06-14T07:51:58;10.35;;;5.72;;
41903;SDS011;27586;51.124;4.182;2023-06-14T07:54:24;11.52;;;5.63;;
41903;SDS011;27586;51.124;4.182;2023-06-14T07:56:51;7.75;;;5.57;;
41903;SDS011;27586;51.124;4.182;2023-06-14T07:59:17;11.27;;;5.68;;
41903;SDS011;27586;51.124;4.182;2023-06-14T08:01:43;12.25;;;5.35;;
41903;SDS011;27586;51.124;4.182;2023-06-14T08:04:15;9.93;;;5.50;;
41903;SDS011;27586;51.124;4.182;2023-06-14T08:06:41;9.50;;;5.10;;
41903;SDS011;27586;51.124;4.182;2023-06-14T08:09:10;9.98;;;5.57;;
41903;SDS011;27586;51.124;4.182;2023-06-14T08:11:37;12.68;;;5.20;;
41903;SDS011;27586;51.124;4.182;2023-06-14T08:14:03;11.27;;;5.72;;
41903;SDS011;27586;51.124;4.182;2023-06-14T08:16:29;7.35;;;5.13;;
41903;SDS011;27586;51.124;4.182;2023-06-14T08:18:55;9.30;;;5.25;;
41903;SDS011;27586;51.124;4.182;2023-06-14T08:21:20;9.18;;;5.40;;
41903;SDS011;27586;51.124;4.182;2023-06-14T08:23:46;15.00;;;5.60;;
41903;SDS011;27586;51.124;4.182;2023-06-14T08:26:12;11.75;;;5.35;;
41903;SDS011;27586;51.124;4.182;2023-06-14T08:28:38;15.38;;;6.15;;
41903;SDS011;27586;51.124;4.182;2023-06-14T08:31:04;12.48;;;6.00;;
41903;SDS011;27586;51.124;4.182;2023-06-14T08:33:30;9.98;;;5.25;;
41903;SDS011;27586;51.124;4.182;2023-06-14T08:35:57;10.35;;;4.97;;
41903;SDS011;27586;51.124;4.182;2023-06-14T08:38:23;12.82;;;5.57;;
41903;SDS011;27586;51.124;4.182;2023-06-14T08:40:50;8.40;;;5.22;;
41903;SDS011;27586;51.124;4.182;2023-06-14T08:43:17;8.35;;;5.43;;
41903;SDS011;27586;51.124;4.182;2023-06-14T08:45:43;10.77;;;5.20;;
41903;SDS011;27586;51.124;4.182;2023-06-14T08:48:11;10.82;;;5.30;;
41903;SDS011;27586;51.124;4.182;2023-06-14T08:50:42;8.77;;;5.47;;
41903;SDS011;27586;51.124;4.182;2023-06-14T08:53:11;8.70;;;6.15;;
41903;SDS011;27586;51.124;4.182;2023-06-14T08:55:44;11.48;;;4.78;;
41903;SDS011;27586;51.124;4.182;2023-06-14T08:58:10;12.57;;;5.57;;
41903;SDS011;27586;51.124;4.182;2023-06-14T09:00:39;9.55;;;5.50;;
41903;SDS011;27586;51.124;4.182;2023-06-14T09:03:07;9.48;;;5.35;;
41903;SDS011;27586;51.124;4.182;2023-06-14T09:05:38;11.88;;;5.38;;
41903;SDS011;27586;51.124;4.182;2023-06-14T09:08:04;9.18;;;5.00;;
41903;SDS011;27586;51.124;4.182;2023-06-14T09:10:31;14.10;;;5.60;;
41903;SDS011;27586;51.124;4.182;2023-06-14T09:13:02;9.32;;;4.93;;
41903;SDS011;27586;51.124;4.182;2023-06-14T09:15:28;6.28;;;5.15;;
41903;SDS011;27586;51.124;4.182;2023-06-14T09:17:55;7.40;;;5.50;;
41903;SDS011;27586;51.124;4.182;2023-06-14T09:20:21;10.95;;;4.65;;
41903;SDS011;27586;51.124;4.182;2023-06-14T09:22:49;10.85;;;5.25;;
41903;SDS011;27586;51.124;4.182;2023-06-14T09:25:15;7.40;;;4.90;;
41903;SDS011;27586;51.124;4.182;2023-06-14T09:27:41;8.40;;;5.10;;
41903;SDS011;27586;51.124;4.182;2023-06-14T09:30:10;11.80;;;5.00;;
41903;SDS011;27586;51.124;4.182;2023-06-14T09:32:37;8.60;;;4.90;;
41903;SDS011;27586;51.124;4.182;2023-06-14T09:35:07;7.05;;;4.38;;
41903;SDS011;27586;51.124;4.182;2023-06-14T09:37:34;9.48;;;4.72;;
41903;SDS011;27586;51.124;4.182;2023-06-14T09:40:01;12.52;;;5.40;;
41903;SDS011;27586;51.124;4.182;2023-06-14T09:42:28;11.07;;;4.85;;
41903;SDS011;27586;51.124;4.182;2023-06-14T09:44:55;10.50;;;5.00;;
41903;SDS011;27586;51.124;4.182;2023-06-14T09:47:22;8.82;;;5.22;;
41903;SDS011;27586;51.124;4.182;2023-06-14T09:49:48;10.20;;;5.30;;
41903;SDS011;27586;51.124;4.182;2023-06-14T09:52:18;7.57;;;4.57;;
41903;SDS011;27586;51.124;4.182;2023-06-14T09:54:45;12.50;;;5.05;;
41903;SDS011;27586;51.124;4.182;2023-06-14T09:57:13;7.88;;;4.93;;
41903;SDS011;27586;51.124;4.182;2023-06-14T09:59:41;7.07;;;4.45;;
41903;SDS011;27586;51.124;4.182;2023-06-14T10:05:06;8.60;;;4.30;;
41903;SDS011;27586;51.124;4.182;2023-06-14T10:07:40;9.60;;;4.28;;
41903;SDS011;27586;51.124;4.182;2023-06-14T10:10:20;11.02;;;5.05;;
41903;SDS011;27586;51.124;4.182;2023-06-14T10:12:46;7.15;;;4.55;;
41903;SDS011;27586;51.124;4.182;2023-06-14T10:15:17;4.88;;;4.20;;
41903;SDS011;27586;51.124;4.182;2023-06-14T10:18:10;7.93;;;4.10;;
41903;SDS011;27586;51.124;4.182;2023-06-14T10:20:55;6.80;;;4.30;;
41903;SDS011;27586;51.124;4.182;2023-06-14T10:23:32;6.97;;;4.30;;
41903;SDS011;27586;51.124;4.182;2023-06-14T10:26:02;4.90;;;3.75;;
41903;SDS011;27586;51.124;4.182;2023-06-14T10:28:28;7.70;;;3.97;;
41903;SDS011;27586;51.124;4.182;2023-06-14T10:31:11;7.32;;;4.43;;
41903;SDS011;27586;51.124;4.182;2023-06-14T10:33:50;6.13;;;4.00;;
41903;SDS011;27586;51.124;4.182;2023-06-14T10:41:52;7.30;;;4.28;;
41903;SDS011;27586;51.124;4.182;2023-06-14T10:46:48;11.98;;;4.72;;
41903;SDS011;27586;51.124;4.182;2023-06-14T10:49:20;15.63;;;4.72;;
41903;SDS011;27586;51.124;4.182;2023-06-14T10:52:12;5.90;;;3.55;;
41903;SDS011;27586;51.124;4.182;2023-06-14T10:57:26;5.55;;;3.40;;
41903;SDS011;27586;51.124;4.182;2023-06-14T10:59:52;5.57;;;3.95;;
41903;SDS011;27586;51.124;4.182;2023-06-14T11:04:48;3.53;;;3.20;;
41903;SDS011;27586;51.124;4.182;2023-06-14T11:10:36;8.65;;;3.15;;
41903;SDS011;27586;51.124;4.182;2023-06-14T11:13:08;5.32;;;3.40;;
41903;SDS011;27586;51.124;4.182;2023-06-14T11:15:37;8.65;;;4.25;;
41903;SDS011;27586;51.124;4.182;2023-06-14T11:18:08;6.78;;;4.05;;
41903;SDS011;27586;51.124;4.182;2023-06-14T11:20:37;5.22;;;3.50;;
41903;SDS011;27586;51.124;4.182;2023-06-14T11:23:03;4.35;;;3.63;;
41903;SDS011;27586;51.124;4.182;2023-06-14T11:25:29;13.07;;;3.78;;
41903;SDS011;27586;51.124;4.182;2023-06-14T11:27:55;7.75;;;3.35;;
41903;SDS011;27586;51.124;4.182;2023-06-14T11:30:22;5.00;;;3.03;;
41903;SDS011;27586;51.124;4.182;2023-06-14T11:32:51;7.13;;;3.40;;
41903;SDS011;27586;51.124;4.182;2023-06-14T11:35:18;4.75;;;3.58;;
41903;SDS011;27586;51.124;4.182;2023-06-14T11:37:47;6.88;;;3.63;;
41903;SDS011;27586;51.124;4.182;2023-06-14T11:40:14;7.20;;;3.70;;
41903;SDS011;27586;51.124;4.182;2023-06-14T11:42:40;7.03;;;3.17;;
41903;SDS011;27586;51.124;4.182;2023-06-14T11:45:10;6.13;;;3.45;;
41903;SDS011;27586;51.124;4.182;2023-06-14T11:47:37;6.82;;;3.13;;
41903;SDS011;27586;51.124;4.182;2023-06-14T11:50:05;6.15;;;3.47;;
41903;SDS011;27586;51.124;4.182;2023-06-14T11:52:33;4.70;;;3.30;;
41903;SDS011;27586;51.124;4.182;2023-06-14T11:54:59;8.55;;;3.58;;
41903;SDS011;27586;51.124;4.182;2023-06-14T11:57:26;6.38;;;3.78;;
41903;SDS011;27586;51.124;4.182;2023-06-14T11:59:51;9.60;;;3.47;;
41903;SDS011;27586;51.124;4.182;2023-06-14T12:02:21;5.53;;;3.33;;
41903;SDS011;27586;51.124;4.182;2023-06-14T12:04:47;5.57;;;2.95;;
41903;SDS011;27586;51.124;4.182;2023-06-14T12:07:14;8.55;;;3.35;;
41903;SDS011;27586;51.124;4.182;2023-06-14T12:09:42;6.28;;;3.13;;
41903;SDS011;27586;51.124;4.182;2023-06-14T12:12:30;4.25;;;3.53;;
41903;SDS011;27586;51.124;4.182;2023-06-14T12:14:56;6.13;;;3.50;;
41903;SDS011;27586;51.124;4.182;2023-06-14T12:17:22;5.47;;;3.15;;
41903;SDS011;27586;51.124;4.182;2023-06-14T12:19:48;8.85;;;3.03;;
41903;SDS011;27586;51.124;4.182;2023-06-14T12:22:15;8.35;;;3.65;;
41903;SDS011;27586;51.124;4.182;2023-06-14T12:24:45;5.43;;;3.17;;
41903;SDS011;27586;51.124;4.182;2023-06-14T12:27:11;6.60;;;3.22;;
41903;SDS011;27586;51.124;4.182;2023-06-14T12:29:40;3.90;;;3.13;;
41903;SDS011;27586;51.124;4.182;2023-06-14T12:32:08;3.97;;;3.03;;
41903;SDS011;27586;51.124;4.182;2023-06-14T12:34:34;5.90;;;3.45;;
41903;SDS011;27586;51.124;4.182;2023-06-14T12:37:00;6.28;;;3.28;;
41903;SDS011;27586;51.124;4.182;2023-06-14T12:39:28;4.38;;;2.90;;
41903;SDS011;27586;51.124;4.182;2023-06-14T12:41:55;5.70;;;3.20;;
41903;SDS011;27586;51.124;4.182;2023-06-14T12:44:20;4.40;;;3.30;;
41903;SDS011;27586;51.124;4.182;2023-06-14T12:46:46;5.07;;;3.38;;
41903;SDS011;27586;51.124;4.182;2023-06-14T12:49:12;5.95;;;2.90;;
41903;SDS011;27586;51.124;4.182;2023-06-14T12:51:38;6.65;;;3.58;;
41903;SDS011;27586;51.124;4.182;2023-06-14T12:54:05;6.50;;;3.45;;
41903;SDS011;27586;51.124;4.182;2023-06-14T12:56:31;9.50;;;3.28;;
41903;SDS011;27586;51.124;4.182;2023-06-14T12:58:56;5.28;;;3.00;;
41903;SDS011;27586;51.124;4.182;2023-06-14T13:01:26;6.13;;;3.30;;
41903;SDS011;27586;51.124;4.182;2023-06-14T13:03:51;7.00;;;3.17;;
41903;SDS011;27586;51.124;4.182;2023-06-14T13:06:21;7.43;;;3.40;;
41903;SDS011;27586;51.124;4.182;2023-06-14T13:08:47;5.82;;;3.00;;
41903;SDS011;27586;51.124;4.182;2023-06-14T13:11:14;4.95;;;2.97;;
41903;SDS011;27586;51.124;4.182;2023-06-14T13:13:43;3.97;;;2.70;;
41903;SDS011;27586;51.124;4.182;2023-06-14T13:16:09;8.73;;;2.80;;
41903;SDS011;27586;51.124;4.182;2023-06-14T13:18:35;4.82;;;2.90;;
41903;SDS011;27586;51.124;4.182;2023-06-14T13:21:01;9.38;;;2.83;;
41903;SDS011;27586;51.124;4.182;2023-06-14T13:23:27;5.20;;;3.00;;
41903;SDS011;27586;51.124;4.182;2023-06-14T13:25:53;3.00;;;2.60;;
41903;SDS011;27586;51.124;4.182;2023-06-14T13:28:18;5.13;;;2.67;;
41903;SDS011;27586;51.124;4.182;2023-06-14T13:30:45;2.78;;;2.50;;
41903;SDS011;27586;51.124;4.182;2023-06-14T13:33:12;8.52;;;2.75;;
41903;SDS011;27586;51.124;4.182;2023-06-14T13:35:38;5.07;;;2.65;;
41903;SDS011;27586;51.124;4.182;2023-06-14T13:38:04;5.25;;;2.50;;
41903;SDS011;27586;51.124;4.182;2023-06-14T13:40:30;5.85;;;2.75;;
41903;SDS011;27586;51.124;4.182;2023-06-14T13:42:55;6.45;;;2.47;;
41903;SDS011;27586;51.124;4.182;2023-06-14T13:45:21;6.50;;;2.42;;
41903;SDS011;27586;51.124;4.182;2023-06-14T13:47:47;3.45;;;2.40;;
41903;SDS011;27586;51.124;4.182;2023-06-14T13:50:13;6.55;;;2.50;;
41903;SDS011;27586;51.124;4.182;2023-06-14T13:52:39;4.63;;;2.50;;
41903;SDS011;27586;51.124;4.182;2023-06-14T13:55:05;5.20;;;2.15;;
41903;SDS011;27586;51.124;4.182;2023-06-14T13:57:31;3.08;;;1.73;;
41903;SDS011;27586;51.124;4.182;2023-06-14T13:59:57;6.93;;;2.30;;
41903;SDS011;27586;51.124;4.182;2023-06-14T14:02:26;6.13;;;1.92;;
41903;SDS011;27586;51.124;4.182;2023-06-14T14:04:53;4.18;;;1.90;;
41903;SDS011;27586;51.124;4.182;2023-06-14T14:07:20;6.55;;;1.65;;
41903;SDS011;27586;51.124;4.182;2023-06-14T14:09:47;3.97;;;1.60;;
41903;SDS011;27586;51.124;4.182;2023-06-14T14:12:12;4.60;;;1.50;;
41903;SDS011;27586;51.124;4.182;2023-06-14T14:14:39;2.70;;;1.55;;
41903;SDS011;27586;51.124;4.182;2023-06-14T14:17:05;2.75;;;1.45;;
41903;SDS011;27586;51.124;4.182;2023-06-14T14:19:31;1.70;;;1.60;;
41903;SDS011;27586;51.124;4.182;2023-06-14T14:21:57;2.45;;;1.50;;
41903;SDS011;27586;51.124;4.182;2023-06-14T14:24:23;4.00;;;1.67;;
41903;SDS011;27586;51.124;4.182;2023-06-14T14:26:49;2.85;;;1.75;;
41903;SDS011;27586;51.124;4.182;2023-06-14T14:29:18;3.90;;;1.63;;
41903;SDS011;27586;51.124;4.182;2023-06-14T14:31:45;2.33;;;1.20;;
41903;SDS011;27586;51.124;4.182;2023-06-14T14:34:10;3.90;;;1.60;;
41903;SDS011;27586;51.124;4.182;2023-06-14T14:36:37;2.50;;;1.83;;
41903;SDS011;27586;51.124;4.182;2023-06-14T14:39:06;2.70;;;1.35;;
41903;SDS011;27586;51.124;4.182;2023-06-14T14:41:32;3.00;;;1.30;;
41903;SDS011;27586;51.124;4.182;2023-06-14T14:43:57;2.83;;;1.20;;
41903;SDS011;27586;51.124;4.182;2023-06-14T14:46:25;2.65;;;1.30;;
41903;SDS011;27586;51.124;4.182;2023-06-14T14:48:52;2.10;;;1.38;;
41903;SDS011;27586;51.124;4.182;2023-06-14T14:51:18;2.72;;;1.45;;
41903;SDS011;27586;51.124;4.182;2023-06-14T14:53:43;2.08;;;1.40;;
41903;SDS011;27586;51.124;4.182;2023-06-14T14:56:09;5.05;;;1.60;;
41903;SDS011;27586;51.124;4.182;2023-06-14T14:58:35;1.85;;;1.40;;
41903;SDS011;27586;51.124;4.182;2023-06-14T15:01:01;2.70;;;1.60;;
41903;SDS011;27586;51.124;4.182;2023-06-14T15:03:26;3.75;;;1.70;;
41903;SDS011;27586;51.124;4.182;2023-06-14T15:05:53;3.13;;;1.60;;
41903;SDS011;27586;51.124;4.182;2023-06-14T15:08:18;3.65;;;1.88;;
41903;SDS011;27586;51.124;4.182;2023-06-14T15:10:44;4.60;;;2.05;;